sensor_id;sensor_type;location;lat;lon;timestamp;temperature;humidity
5924;DHT22;2987;50.884;14.818;2023-06-26T00:01:21;15.00;99.90
5924;DHT22;2987;50.884;14.818;2023-06-26T00:03:48;15.10;99.90
5924;DHT22;2987;50.884;14.818;2023-06-26T00:06:14;15.10;99.90
5924;DHT22;2987;50.884;14.818;2023-06-26T00:08:40;15.10;99.90
5924;DHT22;2987;50.884;14.818;2023-06-26T00:11:06;15.10;99.90
5924;DHT22;2987;50.884;14.818;2023-06-26T00:13:32;15.10;99.90
5924;DHT22;2987;50.884;14.818;2023-06-26T00:15:58;15.10;99.90
5924;DHT22;2987;50.884;14.818;2023-06-26T00:18:29;15.00;99.90
5924;DHT22;2987;50.884;14.818;2023-06-26T00:20:55;15.00;99.90
5924;DHT22;2987;50.884;14.818;2023-06-26T00:23:21;15.00;99.90
5924;DHT22;2987;50.884;14.818;2023-06-26T00:25:47;15.00;99.90
5924;DHT22;2987;50.884;14.818;2023-06-26T00:28:13;15.00;99.90
5924;DHT22;2987;50.884;14.818;2023-06-26T00:30:39;15.00;99.90
5924;DHT22;2987;50.884;14.818;2023-06-26T00:33:05;15.00;99.90
5924;DHT22;2987;50.884;14.818;2023-06-26T00:35:31;15.10;99.90
5924;DHT22;2987;50.884;14.818;2023-06-26T00:37:57;15.10;99.90
5924;DHT22;2987;50.884;14.818;2023-06-26T00:40:23;15.20;99.90
5924;DHT22;2987;50.884;14.818;2023-06-26T00:42:50;15.20;99.90
5924;DHT22;2987;50.884;14.818;2023-06-26T00:45:16;15.20;99.90
5924;DHT22;2987;50.884;14.818;2023-06-26T00:50:08;15.20;99.90
5924;DHT22;2987;50.884;14.818;2023-06-26T00:52:35;15.30;99.90
5924;DHT22;2987;50.884;14.818;2023-06-26T00:55:02;15.30;99.90
5924;DHT22;2987;50.884;14.818;2023-06-26T00:57:30;15.40;99.90
5924;DHT22;2987;50.884;14.818;2023-06-26T00:59:57;15.30;99.90
5924;DHT22;2987;50.884;14.818;2023-06-26T01:02:23;15.40;99.90
5924;DHT22;2987;50.884;14.818;2023-06-26T01:04:50;15.40;99.90
5924;DHT22;2987;50.884;14.818;2023-06-26T01:07:19;15.40;99.90
5924;DHT22;2987;50.884;14.818;2023-06-26T01:09:47;15.40;99.90
5924;DHT22;2987;50.884;14.818;2023-06-26T01:12:15;15.40;99.90
5924;DHT22;2987;50.884;14.818;2023-06-26T01:14:41;15.40;99.90
5924;DHT22;2987;50.884;14.818;2023-06-26T01:17:08;15.40;99.90
5924;DHT22;2987;50.884;14.818;2023-06-26T01:19:37;15.40;99.90
5924;DHT22;2987;50.884;14.818;2023-06-26T01:22:19;15.40;99.90
5924;DHT22;2987;50.884;14.818;2023-06-26T01:25:10;15.40;99.90
5924;DHT22;2987;50.884;14.818;2023-06-26T01:27:39;15.40;99.90
5924;DHT22;2987;50.884;14.818;2023-06-26T01:30:07;15.30;99.90
5924;DHT22;2987;50.884;14.818;2023-06-26T01:32:36;15.20;99.90
5924;DHT22;2987;50.884;14.818;2023-06-26T01:35:02;15.20;99.90
5924;DHT22;2987;50.884;14.818;2023-06-26T01:37:29;15.20;99.90
5924;DHT22;2987;50.884;14.818;2023-06-26T01:39:55;15.20;99.90
5924;DHT22;2987;50.884;14.818;2023-06-26T01:42:21;15.20;99.90
5924;DHT22;2987;50.884;14.818;2023-06-26T01:44:47;15.20;99.90
5924;DHT22;2987;50.884;14.818;2023-06-26T01:47:18;15.30;99.90
5924;DHT22;2987;50.884;14.818;2023-06-26T01:50:02;15.30;99.90
5924;DHT22;2987;50.884;14.818;2023-06-26T01:52:41;15.30;99.90
5924;DHT22;2987;50.884;14.818;2023-06-26T01:55:17;15.30;99.90
5924;DHT22;2987;50.884;14.818;2023-06-26T01:57:48;15.20;99.90
5924;DHT22;2987;50.884;14.818;2023-06-26T02:00:16;15.20;99.90
5924;DHT22;2987;50.884;14.818;2023-06-26T02:02:44;15.20;99.90
5924;DHT22;2987;50.884;14.818;2023-06-26T02:05:12;15.20;99.90
5924;DHT22;2987;50.884;14.818;2023-06-26T02:07:39;15.20;99.90
5924;DHT22;2987;50.884;14.818;2023-06-26T02:10:05;15.20;99.90
5924;DHT22;2987;50.884;14.818;2023-06-26T02:12:33;15.20;99.90
5924;DHT22;2987;50.884;14.818;2023-06-26T02:14:59;15.20;99.90
5924;DHT22;2987;50.884;14.818;2023-06-26T02:17:25;15.20;99.90
5924;DHT22;2987;50.884;14.818;2023-06-26T02:19:54;15.20;99.90
5924;DHT22;2987;50.884;14.818;2023-06-26T02:22:20;15.20;99.90
5924;DHT22;2987;50.884;14.818;2023-06-26T02:24:47;15.20;99.90
5924;DHT22;2987;50.884;14.818;2023-06-26T02:27:13;15.20;99.90
5924;DHT22;2987;50.884;14.818;2023-06-26T02:29:40;15.20;99.90
5924;DHT22;2987;50.884;14.818;2023-06-26T02:32:08;15.20;99.90
5924;DHT22;2987;50.884;14.818;2023-06-26T02:34:35;15.20;99.90
5924;DHT22;2987;50.884;14.818;2023-06-26T02:37:01;15.20;99.90
5924;DHT22;2987;50.884;14.818;2023-06-26T02:39:27;15.20;99.90
5924;DHT22;2987;50.884;14.818;2023-06-26T02:41:54;15.20;99.90
5924;DHT22;2987;50.884;14.818;2023-06-26T02:44:22;15.20;99.90
5924;DHT22;2987;50.884;14.818;2023-06-26T02:46:48;15.20;99.90
5924;DHT22;2987;50.884;14.818;2023-06-26T02:49:14;15.20;99.90
5924;DHT22;2987;50.884;14.818;2023-06-26T02:51:41;15.20;99.90
5924;DHT22;2987;50.884;14.818;2023-06-26T02:54:14;15.10;99.90
5924;DHT22;2987;50.884;14.818;2023-06-26T02:56:42;15.10;99.90
5924;DHT22;2987;50.884;14.818;2023-06-26T02:59:08;15.00;99.90
5924;DHT22;2987;50.884;14.818;2023-06-26T03:01:34;15.10;99.90
5924;DHT22;2987;50.884;14.818;2023-06-26T03:04:02;15.00;99.90
5924;DHT22;2987;50.884;14.818;2023-06-26T03:06:28;15.00;99.90
5924;DHT22;2987;50.884;14.818;2023-06-26T03:08:54;15.00;99.90
5924;DHT22;2987;50.884;14.818;2023-06-26T03:11:20;15.00;99.90
5924;DHT22;2987;50.884;14.818;2023-06-26T03:13:46;14.90;99.90
5924;DHT22;2987;50.884;14.818;2023-06-26T03:16:13;14.90;99.90
5924;DHT22;2987;50.884;14.818;2023-06-26T03:18:39;14.90;99.90
5924;DHT22;2987;50.884;14.818;2023-06-26T03:21:05;14.90;99.90
5924;DHT22;2987;50.884;14.818;2023-06-26T03:23:31;14.80;99.90
5924;DHT22;2987;50.884;14.818;2023-06-26T03:25:57;14.80;99.90
5924;DHT22;2987;50.884;14.818;2023-06-26T03:28:26;14.80;99.90
5924;DHT22;2987;50.884;14.818;2023-06-26T03:30:52;14.80;99.90
5924;DHT22;2987;50.884;14.818;2023-06-26T03:33:18;14.80;99.90
5924;DHT22;2987;50.884;14.818;2023-06-26T03:35:44;14.80;99.90
5924;DHT22;2987;50.884;14.818;2023-06-26T03:38:13;14.70;99.90
5924;DHT22;2987;50.884;14.818;2023-06-26T03:40:41;14.70;99.90
5924;DHT22;2987;50.884;14.818;2023-06-26T03:43:07;14.80;99.90
5924;DHT22;2987;50.884;14.818;2023-06-26T03:45:43;14.80;99.90
5924;DHT22;2987;50.884;14.818;2023-06-26T03:48:09;14.80;99.90
5924;DHT22;2987;50.884;14.818;2023-06-26T03:50:36;14.90;99.90
5924;DHT22;2987;50.884;14.818;2023-06-26T03:53:02;14.90;99.90
5924;DHT22;2987;50.884;14.818;2023-06-26T03:55:28;15.00;99.90
5924;DHT22;2987;50.884;14.818;2023-06-26T03:57:54;15.00;99.90
5924;DHT22;2987;50.884;14.818;2023-06-26T04:00:20;15.10;99.90
5924;DHT22;2987;50.884;14.818;2023-06-26T04:02:46;15.20;99.90
5924;DHT22;2987;50.884;14.818;2023-06-26T04:05:12;15.20;99.90
5924;DHT22;2987;50.884;14.818;2023-06-26T04:07:38;15.20;99.90
5924;DHT22;2987;50.884;14.818;2023-06-26T04:10:05;15.20;99.90
5924;DHT22;2987;50.884;14.818;2023-06-26T04:12:31;15.20;99.90
5924;DHT22;2987;50.884;14.818;2023-06-26T04:14:57;15.20;99.90
5924;DHT22;2987;50.884;14.818;2023-06-26T04:17:23;15.20;99.90
5924;DHT22;2987;50.884;14.818;2023-06-26T04:19:48;15.20;99.90
5924;DHT22;2987;50.884;14.818;2023-06-26T04:22:14;15.20;99.90
5924;DHT22;2987;50.884;14.818;2023-06-26T04:24:40;15.20;99.90
5924;DHT22;2987;50.884;14.818;2023-06-26T04:27:06;15.10;99.90
5924;DHT22;2987;50.884;14.818;2023-06-26T04:29:32;15.10;99.90
5924;DHT22;2987;50.884;14.818;2023-06-26T04:31:58;15.10;99.90
5924;DHT22;2987;50.884;14.818;2023-06-26T04:34:25;15.10;99.90
5924;DHT22;2987;50.884;14.818;2023-06-26T04:36:51;15.20;99.90
5924;DHT22;2987;50.884;14.818;2023-06-26T04:39:17;15.10;99.90
5924;DHT22;2987;50.884;14.818;2023-06-26T04:41:43;15.20;99.90
5924;DHT22;2987;50.884;14.818;2023-06-26T04:44:09;15.20;99.90
5924;DHT22;2987;50.884;14.818;2023-06-26T04:46:37;15.20;99.90
5924;DHT22;2987;50.884;14.818;2023-06-26T04:49:08;15.30;99.90
5924;DHT22;2987;50.884;14.818;2023-06-26T04:51:34;15.30;99.90
5924;DHT22;2987;50.884;14.818;2023-06-26T04:54:07;15.50;99.90
5924;DHT22;2987;50.884;14.818;2023-06-26T04:56:34;15.70;99.90
5924;DHT22;2987;50.884;14.818;2023-06-26T04:59:00;15.90;99.90
5924;DHT22;2987;50.884;14.818;2023-06-26T05:01:26;16.10;99.90
5924;DHT22;2987;50.884;14.818;2023-06-26T05:03:56;16.30;99.90
5924;DHT22;2987;50.884;14.818;2023-06-26T05:06:23;16.40;99.90
5924;DHT22;2987;50.884;14.818;2023-06-26T05:11:14;16.70;99.90
5924;DHT22;2987;50.884;14.818;2023-06-26T05:13:40;16.90;99.90
5924;DHT22;2987;50.884;14.818;2023-06-26T05:16:06;17.10;99.90
5924;DHT22;2987;50.884;14.818;2023-06-26T05:18:35;17.20;99.90
5924;DHT22;2987;50.884;14.818;2023-06-26T05:21:02;17.30;99.90
5924;DHT22;2987;50.884;14.818;2023-06-26T05:23:31;17.50;99.90
5924;DHT22;2987;50.884;14.818;2023-06-26T05:25:57;17.60;99.90
5924;DHT22;2987;50.884;14.818;2023-06-26T05:28:24;17.70;99.90
5924;DHT22;2987;50.884;14.818;2023-06-26T05:30:51;17.90;99.90
5924;DHT22;2987;50.884;14.818;2023-06-26T05:33:18;18.00;99.90
5924;DHT22;2987;50.884;14.818;2023-06-26T05:35:46;18.10;99.90
5924;DHT22;2987;50.884;14.818;2023-06-26T05:38:13;18.20;99.90
5924;DHT22;2987;50.884;14.818;2023-06-26T05:40:40;18.30;99.90
5924;DHT22;2987;50.884;14.818;2023-06-26T05:43:07;18.40;99.90
5924;DHT22;2987;50.884;14.818;2023-06-26T05:45:33;18.50;99.90
5924;DHT22;2987;50.884;14.818;2023-06-26T05:47:59;18.50;99.90
5924;DHT22;2987;50.884;14.818;2023-06-26T05:50:25;18.50;99.90
5924;DHT22;2987;50.884;14.818;2023-06-26T05:52:51;18.60;99.90
5924;DHT22;2987;50.884;14.818;2023-06-26T05:55:18;18.60;99.90
5924;DHT22;2987;50.884;14.818;2023-06-26T05:57:46;18.60;99.90
5924;DHT22;2987;50.884;14.818;2023-06-26T06:00:13;18.60;99.90
5924;DHT22;2987;50.884;14.818;2023-06-26T06:02:40;18.60;99.90
5924;DHT22;2987;50.884;14.818;2023-06-26T06:05:07;18.60;99.90
5924;DHT22;2987;50.884;14.818;2023-06-26T06:07:34;18.70;99.90
5924;DHT22;2987;50.884;14.818;2023-06-26T06:10:01;18.80;99.90
5924;DHT22;2987;50.884;14.818;2023-06-26T06:12:29;18.80;99.90
5924;DHT22;2987;50.884;14.818;2023-06-26T06:14:56;19.10;99.90
5924;DHT22;2987;50.884;14.818;2023-06-26T06:17:22;19.30;99.90
5924;DHT22;2987;50.884;14.818;2023-06-26T06:19:49;19.60;99.90
5924;DHT22;2987;50.884;14.818;2023-06-26T06:22:15;20.10;99.90
5924;DHT22;2987;50.884;14.818;2023-06-26T06:24:43;20.60;99.90
5924;DHT22;2987;50.884;14.818;2023-06-26T06:27:09;21.10;99.90
5924;DHT22;2987;50.884;14.818;2023-06-26T06:29:36;21.70;99.90
5924;DHT22;2987;50.884;14.818;2023-06-26T06:34:28;22.60;99.90
5924;DHT22;2987;50.884;14.818;2023-06-26T06:36:54;22.80;99.90
5924;DHT22;2987;50.884;14.818;2023-06-26T06:39:20;23.00;99.90
5924;DHT22;2987;50.884;14.818;2023-06-26T06:41:46;23.20;99.90
5924;DHT22;2987;50.884;14.818;2023-06-26T06:44:12;23.50;99.90
5924;DHT22;2987;50.884;14.818;2023-06-26T06:46:38;23.90;99.90
5924;DHT22;2987;50.884;14.818;2023-06-26T06:49:04;24.10;99.90
5924;DHT22;2987;50.884;14.818;2023-06-26T06:51:30;24.30;99.90
5924;DHT22;2987;50.884;14.818;2023-06-26T06:53:56;24.60;99.90
5924;DHT22;2987;50.884;14.818;2023-06-26T06:56:22;24.60;99.90
5924;DHT22;2987;50.884;14.818;2023-06-26T06:58:47;24.70;99.90
5924;DHT22;2987;50.884;14.818;2023-06-26T07:01:13;24.90;99.90
5924;DHT22;2987;50.884;14.818;2023-06-26T07:03:40;25.20;99.90
5924;DHT22;2987;50.884;14.818;2023-06-26T07:06:06;25.40;99.90
5924;DHT22;2987;50.884;14.818;2023-06-26T07:08:32;25.60;99.90
5924;DHT22;2987;50.884;14.818;2023-06-26T07:10:58;25.70;99.90
5924;DHT22;2987;50.884;14.818;2023-06-26T07:13:24;25.80;99.90
5924;DHT22;2987;50.884;14.818;2023-06-26T07:15:50;26.00;99.90
5924;DHT22;2987;50.884;14.818;2023-06-26T07:18:18;26.20;99.90
5924;DHT22;2987;50.884;14.818;2023-06-26T07:20:44;26.30;99.90
5924;DHT22;2987;50.884;14.818;2023-06-26T07:23:10;26.40;99.90
5924;DHT22;2987;50.884;14.818;2023-06-26T07:25:36;26.40;99.90
5924;DHT22;2987;50.884;14.818;2023-06-26T07:28:05;26.40;99.90
5924;DHT22;2987;50.884;14.818;2023-06-26T07:30:35;26.50;99.90
5924;DHT22;2987;50.884;14.818;2023-06-26T07:33:01;26.70;99.90
5924;DHT22;2987;50.884;14.818;2023-06-26T07:35:27;26.80;99.90
5924;DHT22;2987;50.884;14.818;2023-06-26T07:37:53;26.90;99.90
5924;DHT22;2987;50.884;14.818;2023-06-26T07:40:19;26.90;99.90
5924;DHT22;2987;50.884;14.818;2023-06-26T07:42:45;26.90;99.90
5924;DHT22;2987;50.884;14.818;2023-06-26T07:45:12;26.80;99.90
5924;DHT22;2987;50.884;14.818;2023-06-26T07:47:39;27.00;99.90
5924;DHT22;2987;50.884;14.818;2023-06-26T07:50:05;27.00;99.90
5924;DHT22;2987;50.884;14.818;2023-06-26T07:52:31;27.00;99.90
5924;DHT22;2987;50.884;14.818;2023-06-26T07:54:58;27.20;99.90
5924;DHT22;2987;50.884;14.818;2023-06-26T07:57:24;27.10;99.90
5924;DHT22;2987;50.884;14.818;2023-06-26T07:59:50;27.20;99.90
5924;DHT22;2987;50.884;14.818;2023-06-26T08:02:16;27.50;99.90
5924;DHT22;2987;50.884;14.818;2023-06-26T08:07:10;27.60;99.90
5924;DHT22;2987;50.884;14.818;2023-06-26T08:09:36;27.40;99.90
5924;DHT22;2987;50.884;14.818;2023-06-26T08:12:02;27.30;99.90
5924;DHT22;2987;50.884;14.818;2023-06-26T08:14:28;27.40;99.90
5924;DHT22;2987;50.884;14.818;2023-06-26T08:16:54;27.40;99.90
5924;DHT22;2987;50.884;14.818;2023-06-26T08:19:20;27.40;99.90
5924;DHT22;2987;50.884;14.818;2023-06-26T08:21:47;27.50;99.90
5924;DHT22;2987;50.884;14.818;2023-06-26T08:24:13;27.60;99.90
5924;DHT22;2987;50.884;14.818;2023-06-26T08:26:42;27.70;99.90
5924;DHT22;2987;50.884;14.818;2023-06-26T08:29:08;27.90;99.90
5924;DHT22;2987;50.884;14.818;2023-06-26T08:31:35;28.10;99.90
5924;DHT22;2987;50.884;14.818;2023-06-26T08:34:03;28.30;99.90
5924;DHT22;2987;50.884;14.818;2023-06-26T08:36:31;28.20;99.90
5924;DHT22;2987;50.884;14.818;2023-06-26T08:38:57;28.30;99.90
5924;DHT22;2987;50.884;14.818;2023-06-26T08:41:24;28.20;99.90
5924;DHT22;2987;50.884;14.818;2023-06-26T08:43:50;28.30;99.90
5924;DHT22;2987;50.884;14.818;2023-06-26T08:46:19;28.50;99.90
5924;DHT22;2987;50.884;14.818;2023-06-26T08:48:49;28.80;99.90
5924;DHT22;2987;50.884;14.818;2023-06-26T08:51:23;28.80;99.90
5924;DHT22;2987;50.884;14.818;2023-06-26T08:53:59;29.10;99.90
5924;DHT22;2987;50.884;14.818;2023-06-26T08:56:32;29.10;99.90
5924;DHT22;2987;50.884;14.818;2023-06-26T08:58:58;28.80;99.90
5924;DHT22;2987;50.884;14.818;2023-06-26T09:01:25;28.80;99.90
5924;DHT22;2987;50.884;14.818;2023-06-26T09:03:51;28.80;99.90
5924;DHT22;2987;50.884;14.818;2023-06-26T09:06:17;28.80;99.90
5924;DHT22;2987;50.884;14.818;2023-06-26T09:08:44;28.70;99.90
5924;DHT22;2987;50.884;14.818;2023-06-26T09:11:10;28.60;99.90
5924;DHT22;2987;50.884;14.818;2023-06-26T09:13:37;28.60;99.90
5924;DHT22;2987;50.884;14.818;2023-06-26T09:16:06;28.80;99.90
5924;DHT22;2987;50.884;14.818;2023-06-26T09:18:34;28.90;99.90
5924;DHT22;2987;50.884;14.818;2023-06-26T09:21:00;28.80;99.90
5924;DHT22;2987;50.884;14.818;2023-06-26T09:23:31;28.80;99.90
5924;DHT22;2987;50.884;14.818;2023-06-26T09:25:57;29.00;99.90
5924;DHT22;2987;50.884;14.818;2023-06-26T09:28:24;29.20;99.90
5924;DHT22;2987;50.884;14.818;2023-06-26T09:30:50;29.40;99.90
5924;DHT22;2987;50.884;14.818;2023-06-26T09:33:19;29.10;99.90
5924;DHT22;2987;50.884;14.818;2023-06-26T09:35:47;29.20;99.90
5924;DHT22;2987;50.884;14.818;2023-06-26T09:38:14;29.20;99.90
5924;DHT22;2987;50.884;14.818;2023-06-26T09:40:41;29.10;99.90
5924;DHT22;2987;50.884;14.818;2023-06-26T09:43:09;29.20;99.90
5924;DHT22;2987;50.884;14.818;2023-06-26T09:45:35;29.30;99.90
5924;DHT22;2987;50.884;14.818;2023-06-26T09:48:03;29.50;99.90
5924;DHT22;2987;50.884;14.818;2023-06-26T09:50:33;29.60;99.90
5924;DHT22;2987;50.884;14.818;2023-06-26T09:53:08;29.70;99.90
5924;DHT22;2987;50.884;14.818;2023-06-26T09:55:36;29.70;99.90
5924;DHT22;2987;50.884;14.818;2023-06-26T09:58:04;29.80;99.90
5924;DHT22;2987;50.884;14.818;2023-06-26T10:00:31;29.90;99.90
5924;DHT22;2987;50.884;14.818;2023-06-26T10:02:58;29.90;99.90
5924;DHT22;2987;50.884;14.818;2023-06-26T10:05:25;30.00;99.90
5924;DHT22;2987;50.884;14.818;2023-06-26T10:07:52;29.80;99.90
5924;DHT22;2987;50.884;14.818;2023-06-26T10:10:19;29.90;99.90
5924;DHT22;2987;50.884;14.818;2023-06-26T10:12:48;30.10;99.90
5924;DHT22;2987;50.884;14.818;2023-06-26T10:15:15;30.10;99.90
5924;DHT22;2987;50.884;14.818;2023-06-26T10:17:44;30.00;99.90
5924;DHT22;2987;50.884;14.818;2023-06-26T10:20:14;30.40;99.90
5924;DHT22;2987;50.884;14.818;2023-06-26T10:22:45;30.50;99.90
5924;DHT22;2987;50.884;14.818;2023-06-26T10:25:16;30.70;99.90
5924;DHT22;2987;50.884;14.818;2023-06-26T10:27:48;31.00;99.90
5924;DHT22;2987;50.884;14.818;2023-06-26T10:30:20;31.20;99.90
5924;DHT22;2987;50.884;14.818;2023-06-26T10:32:48;31.40;97.90
5924;DHT22;2987;50.884;14.818;2023-06-26T10:35:15;31.40;95.70
5924;DHT22;2987;50.884;14.818;2023-06-26T10:37:44;31.40;96.80
5924;DHT22;2987;50.884;14.818;2023-06-26T10:40:11;31.30;96.50
5924;DHT22;2987;50.884;14.818;2023-06-26T10:42:38;31.30;97.40
5924;DHT22;2987;50.884;14.818;2023-06-26T10:45:20;31.30;95.00
5924;DHT22;2987;50.884;14.818;2023-06-26T10:47:48;31.10;97.40
5924;DHT22;2987;50.884;14.818;2023-06-26T10:50:25;30.80;97.10
5924;DHT22;2987;50.884;14.818;2023-06-26T10:53:24;30.80;96.40
5924;DHT22;2987;50.884;14.818;2023-06-26T10:55:58;31.00;96.60
5924;DHT22;2987;50.884;14.818;2023-06-26T11:01:17;31.20;97.80
5924;DHT22;2987;50.884;14.818;2023-06-26T11:03:46;31.20;96.80
5924;DHT22;2987;50.884;14.818;2023-06-26T11:06:22;31.20;98.00
5924;DHT22;2987;50.884;14.818;2023-06-26T11:08:50;31.20;97.60
5924;DHT22;2987;50.884;14.818;2023-06-26T11:11:18;31.40;95.50
5924;DHT22;2987;50.884;14.818;2023-06-26T11:13:45;31.40;94.80
5924;DHT22;2987;50.884;14.818;2023-06-26T11:16:13;31.50;95.80
5924;DHT22;2987;50.884;14.818;2023-06-26T11:18:40;31.60;94.30
5924;DHT22;2987;50.884;14.818;2023-06-26T11:21:09;31.60;95.30
5924;DHT22;2987;50.884;14.818;2023-06-26T11:23:36;31.70;95.00
5924;DHT22;2987;50.884;14.818;2023-06-26T11:26:20;31.70;96.10
5924;DHT22;2987;50.884;14.818;2023-06-26T11:28:51;31.60;95.50
5924;DHT22;2987;50.884;14.818;2023-06-26T11:31:25;31.40;94.50
5924;DHT22;2987;50.884;14.818;2023-06-26T11:33:53;31.10;95.30
5924;DHT22;2987;50.884;14.818;2023-06-26T11:36:22;31.10;93.50
5924;DHT22;2987;50.884;14.818;2023-06-26T11:38:54;30.90;93.80
5924;DHT22;2987;50.884;14.818;2023-06-26T11:41:22;31.00;96.10
5924;DHT22;2987;50.884;14.818;2023-06-26T11:43:49;31.10;95.60
5924;DHT22;2987;50.884;14.818;2023-06-26T11:46:17;31.40;93.80
5924;DHT22;2987;50.884;14.818;2023-06-26T11:48:44;31.60;94.40
5924;DHT22;2987;50.884;14.818;2023-06-26T11:51:13;32.00;92.80
5924;DHT22;2987;50.884;14.818;2023-06-26T11:53:42;32.20;93.90
5924;DHT22;2987;50.884;14.818;2023-06-26T11:56:10;32.40;92.00
5924;DHT22;2987;50.884;14.818;2023-06-26T12:03:50;32.40;90.40
5924;DHT22;2987;50.884;14.818;2023-06-26T12:06:16;32.30;92.10
5924;DHT22;2987;50.884;14.818;2023-06-26T12:08:43;32.00;93.20
5924;DHT22;2987;50.884;14.818;2023-06-26T12:11:09;31.70;92.30
5924;DHT22;2987;50.884;14.818;2023-06-26T12:13:36;31.30;91.30
5924;DHT22;2987;50.884;14.818;2023-06-26T12:16:02;30.80;92.00
5924;DHT22;2987;50.884;14.818;2023-06-26T12:18:34;30.90;93.00
5924;DHT22;2987;50.884;14.818;2023-06-26T12:21:01;31.10;93.50
5924;DHT22;2987;50.884;14.818;2023-06-26T12:23:43;31.50;92.00
5924;DHT22;2987;50.884;14.818;2023-06-26T12:26:18;32.00;89.70
5924;DHT22;2987;50.884;14.818;2023-06-26T12:28:45;32.20;90.50
5924;DHT22;2987;50.884;14.818;2023-06-26T12:31:15;32.50;89.40
5924;DHT22;2987;50.884;14.818;2023-06-26T12:33:43;32.80;85.30
5924;DHT22;2987;50.884;14.818;2023-06-26T12:36:12;32.80;86.90
5924;DHT22;2987;50.884;14.818;2023-06-26T12:38:38;33.00;85.00
5924;DHT22;2987;50.884;14.818;2023-06-26T12:41:05;33.10;89.90
5924;DHT22;2987;50.884;14.818;2023-06-26T12:43:31;33.20;86.90
5924;DHT22;2987;50.884;14.818;2023-06-26T12:45:57;33.20;86.60
5924;DHT22;2987;50.884;14.818;2023-06-26T12:48:39;33.00;89.50
5924;DHT22;2987;50.884;14.818;2023-06-26T12:51:17;33.00;86.60
5924;DHT22;2987;50.884;14.818;2023-06-26T12:53:43;33.20;87.80
5924;DHT22;2987;50.884;14.818;2023-06-26T12:56:10;33.30;83.90
5924;DHT22;2987;50.884;14.818;2023-06-26T12:58:37;33.00;85.70
5924;DHT22;2987;50.884;14.818;2023-06-26T13:01:04;33.00;88.60
5924;DHT22;2987;50.884;14.818;2023-06-26T13:03:31;32.70;86.00
5924;DHT22;2987;50.884;14.818;2023-06-26T13:05:57;32.60;84.80
5924;DHT22;2987;50.884;14.818;2023-06-26T13:08:23;32.80;88.20
5924;DHT22;2987;50.884;14.818;2023-06-26T13:10:49;33.00;85.60
5924;DHT22;2987;50.884;14.818;2023-06-26T13:13:16;33.30;84.40
5924;DHT22;2987;50.884;14.818;2023-06-26T13:15:42;33.40;82.10
5924;DHT22;2987;50.884;14.818;2023-06-26T13:18:08;33.50;81.90
5924;DHT22;2987;50.884;14.818;2023-06-26T13:20:34;33.50;81.20
5924;DHT22;2987;50.884;14.818;2023-06-26T13:23:01;33.40;82.70
5924;DHT22;2987;50.884;14.818;2023-06-26T13:25:27;33.30;84.70
5924;DHT22;2987;50.884;14.818;2023-06-26T13:27:53;32.90;83.00
5924;DHT22;2987;50.884;14.818;2023-06-26T13:30:19;33.00;84.60
5924;DHT22;2987;50.884;14.818;2023-06-26T13:32:45;33.10;84.10
5924;DHT22;2987;50.884;14.818;2023-06-26T13:35:11;33.20;83.50
5924;DHT22;2987;50.884;14.818;2023-06-26T13:37:37;33.20;82.70
5924;DHT22;2987;50.884;14.818;2023-06-26T13:40:04;33.40;84.90
5924;DHT22;2987;50.884;14.818;2023-06-26T13:42:32;33.70;84.60
5924;DHT22;2987;50.884;14.818;2023-06-26T13:44:58;33.80;82.70
5924;DHT22;2987;50.884;14.818;2023-06-26T13:47:24;33.90;79.40
5924;DHT22;2987;50.884;14.818;2023-06-26T13:49:50;33.80;79.80
5924;DHT22;2987;50.884;14.818;2023-06-26T13:52:16;33.80;80.30
5924;DHT22;2987;50.884;14.818;2023-06-26T13:54:42;33.70;79.00
5924;DHT22;2987;50.884;14.818;2023-06-26T13:57:09;33.30;81.70
5924;DHT22;2987;50.884;14.818;2023-06-26T13:59:37;32.90;82.10
5924;DHT22;2987;50.884;14.818;2023-06-26T14:02:06;32.90;80.90
5924;DHT22;2987;50.884;14.818;2023-06-26T14:04:33;32.90;82.40
5924;DHT22;2987;50.884;14.818;2023-06-26T14:06:59;33.00;81.30
5924;DHT22;2987;50.884;14.818;2023-06-26T14:09:25;33.10;82.60
5924;DHT22;2987;50.884;14.818;2023-06-26T14:11:51;33.30;82.00
5924;DHT22;2987;50.884;14.818;2023-06-26T14:14:17;33.20;81.20
5924;DHT22;2987;50.884;14.818;2023-06-26T14:16:43;32.70;82.50
5924;DHT22;2987;50.884;14.818;2023-06-26T14:19:09;32.30;85.10
5924;DHT22;2987;50.884;14.818;2023-06-26T14:21:40;32.00;85.90
5924;DHT22;2987;50.884;14.818;2023-06-26T14:24:06;31.60;84.40
5924;DHT22;2987;50.884;14.818;2023-06-26T14:26:32;31.40;85.30
5924;DHT22;2987;50.884;14.818;2023-06-26T14:29:00;31.30;87.00
5924;DHT22;2987;50.884;14.818;2023-06-26T14:31:26;31.50;87.90
5924;DHT22;2987;50.884;14.818;2023-06-26T14:33:52;31.70;87.10
5924;DHT22;2987;50.884;14.818;2023-06-26T14:36:18;31.60;85.90
5924;DHT22;2987;50.884;14.818;2023-06-26T14:38:45;31.30;87.60
5924;DHT22;2987;50.884;14.818;2023-06-26T14:41:12;31.40;87.10
5924;DHT22;2987;50.884;14.818;2023-06-26T14:43:39;31.30;89.40
5924;DHT22;2987;50.884;14.818;2023-06-26T14:46:05;31.30;87.00
5924;DHT22;2987;50.884;14.818;2023-06-26T14:48:30;31.30;88.20
5924;DHT22;2987;50.884;14.818;2023-06-26T14:50:56;31.60;88.20
5924;DHT22;2987;50.884;14.818;2023-06-26T14:53:22;31.90;85.40
5924;DHT22;2987;50.884;14.818;2023-06-26T14:55:48;32.20;83.50
5924;DHT22;2987;50.884;14.818;2023-06-26T14:58:14;32.40;86.50
5924;DHT22;2987;50.884;14.818;2023-06-26T15:00:40;32.70;85.00
5924;DHT22;2987;50.884;14.818;2023-06-26T15:03:06;32.80;85.50
5924;DHT22;2987;50.884;14.818;2023-06-26T15:05:32;32.80;84.40
5924;DHT22;2987;50.884;14.818;2023-06-26T15:07:58;32.80;86.20
5924;DHT22;2987;50.884;14.818;2023-06-26T15:10:24;32.60;83.00
5924;DHT22;2987;50.884;14.818;2023-06-26T15:12:51;32.40;85.00
5924;DHT22;2987;50.884;14.818;2023-06-26T15:15:17;32.30;86.80
5924;DHT22;2987;50.884;14.818;2023-06-26T15:17:43;32.10;87.30
5924;DHT22;2987;50.884;14.818;2023-06-26T15:20:09;31.90;86.10
5924;DHT22;2987;50.884;14.818;2023-06-26T15:22:35;31.80;87.30
5924;DHT22;2987;50.884;14.818;2023-06-26T15:25:01;31.90;85.50
5924;DHT22;2987;50.884;14.818;2023-06-26T15:27:27;31.90;84.90
5924;DHT22;2987;50.884;14.818;2023-06-26T15:29:53;32.00;83.40
5924;DHT22;2987;50.884;14.818;2023-06-26T15:32:19;31.80;83.30
5924;DHT22;2987;50.884;14.818;2023-06-26T15:34:45;31.80;84.40
5924;DHT22;2987;50.884;14.818;2023-06-26T15:37:13;31.60;84.00
5924;DHT22;2987;50.884;14.818;2023-06-26T15:39:38;31.40;84.60
5924;DHT22;2987;50.884;14.818;2023-06-26T15:42:05;31.40;84.30
5924;DHT22;2987;50.884;14.818;2023-06-26T15:44:31;31.20;86.60
5924;DHT22;2987;50.884;14.818;2023-06-26T15:46:59;31.20;87.50
5924;DHT22;2987;50.884;14.818;2023-06-26T15:49:25;31.20;85.80
5924;DHT22;2987;50.884;14.818;2023-06-26T15:51:51;31.20;87.00
5924;DHT22;2987;50.884;14.818;2023-06-26T15:54:17;31.10;86.80
5924;DHT22;2987;50.884;14.818;2023-06-26T15:56:43;31.20;85.50
5924;DHT22;2987;50.884;14.818;2023-06-26T15:59:09;31.10;88.30
5924;DHT22;2987;50.884;14.818;2023-06-26T16:01:35;31.20;86.60
5924;DHT22;2987;50.884;14.818;2023-06-26T16:04:01;31.00;86.00